Time;durP1;ratioP1;P1;durP2;ratioP2;P2;SDS_P1;SDS_P2;PMS_P1;PMS_P2;Temp;Humidity;BMP_temperature;BMP_pressure;BME280_temperature;BME280_humidity;BME280_pressure;Samples;Min_cycle;Max_cycle;Signal;HPM_P1;HPM_P2
2021/11/14 00:01:40;;;;;;;18.52;7.90;;;10.40;97.10;;;;;;5011039;28;20069;-47
2021/11/14 00:04:11;;;;;;;15.32;6.40;;;10.40;97.10;;;;;;5012439;28;20030;-47
2021/11/14 00:06:37;;;;;;;20.35;8.50;;;10.40;97.20;;;;;;5011068;28;20033;-46
2021/11/14 00:09:04;;;;;;;17.17;7.70;;;10.40;97.10;;;;;;5011919;28;20029;-47
2021/11/14 00:11:30;;;;;;;18.48;7.47;;;10.40;97.10;;;;;;5010208;28;20034;-47
2021/11/14 00:13:58;;;;;;;18.90;6.85;;;10.40;97.10;;;;;;5012286;28;20417;-47
2021/11/14 00:16:24;;;;;;;18.17;6.95;;;10.40;97.20;;;;;;5011793;28;20028;-48
2021/11/14 00:18:50;;;;;;;19.25;8.05;;;10.40;97.10;;;;;;5012265;28;20161;-46
2021/11/14 00:21:18;;;;;;;15.65;7.53;;;10.40;97.10;;;;;;5010209;28;20431;-47
2021/11/14 00:23:44;;;;;;;12.60;5.57;;;10.40;97.10;;;;;;5011844;28;20385;-47
2021/11/14 00:26:10;;;;;;;15.32;6.45;;;10.40;97.10;;;;;;5010892;28;20362;-47
2021/11/14 00:28:36;;;;;;;13.45;6.65;;;10.40;97.20;;;;;;5008368;28;20036;-47
2021/11/14 00:31:04;;;;;;;15.43;6.15;;;10.40;97.20;;;;;;5004767;28;20516;-47
2021/11/14 00:33:30;;;;;;;15.13;6.20;;;10.40;97.20;;;;;;5024559;28;20087;-47
2021/11/14 00:35:55;;;;;;;22.33;8.88;;;10.40;97.20;;;;;;5024705;28;20412;-47
2021/11/14 00:38:22;;;;;;;13.38;6.20;;;10.40;97.20;;;;;;5011635;28;20120;-47
2021/11/14 00:40:48;;;;;;;13.82;6.47;;;10.40;97.20;;;;;;5011246;28;20434;-47
2021/11/14 00:43:14;;;;;;;14.52;6.20;;;10.40;97.20;;;;;;5009721;28;20030;-46
2021/11/14 00:45:40;;;;;;;15.20;5.63;;;10.40;97.10;;;;;;5011015;28;20080;-47
2021/11/14 00:48:07;;;;;;;16.50;6.43;;;10.40;97.10;;;;;;5011450;28;20033;-47
2021/11/14 00:50:37;;;;;;;14.88;6.75;;;10.40;97.20;;;;;;5007981;28;20056;-47
2021/11/14 00:53:03;;;;;;;19.23;7.47;;;10.40;97.20;;;;;;5011384;28;20048;-46
2021/11/14 00:55:31;;;;;;;13.68;6.53;;;10.40;97.20;;;;;;5008996;28;20038;-47
2021/11/14 00:57:58;;;;;;;16.08;6.55;;;10.40;97.20;;;;;;4996134;28;20053;-47
2021/11/14 01:00:25;;;;;;;17.52;6.78;;;10.40;97.20;;;;;;4991982;28;20080;-47
2021/11/14 01:02:52;;;;;;;15.75;6.93;;;10.40;97.20;;;;;;4991621;28;20464;-46
2021/11/14 01:05:20;;;;;;;19.05;6.70;;;10.40;97.20;;;;;;4994185;28;20156;-46
2021/11/14 01:07:46;;;;;;;14.07;6.68;;;10.40;97.20;;;;;;5010681;28;20464;-46
2021/11/14 01:10:16;;;;;;;13.73;6.15;;;10.40;97.10;;;;;;5010912;28;20053;-47
2021/11/14 01:12:42;;;;;;;17.98;7.72;;;10.40;97.20;;;;;;5011516;28;20341;-46
2021/11/14 01:15:09;;;;;;;14.68;5.57;;;10.40;97.20;;;;;;5008346;28;20412;-46
2021/11/14 01:17:39;;;;;;;17.15;6.35;;;10.40;97.20;;;;;;5011475;28;20046;-46
2021/11/14 01:20:23;;;;;;;14.65;6.40;;;10.40;97.20;;;;;;5010847;28;20034;-47
2021/11/14 01:22:50;;;;;;;16.90;6.72;;;10.40;97.20;;;;;;5010071;28;20113;-46
2021/11/14 01:25:17;;;;;;;13.55;6.15;;;10.40;97.20;;;;;;4990975;28;20030;-46
2021/11/14 01:27:44;;;;;;;13.38;5.40;;;10.40;97.20;;;;;;5010538;28;20130;-46
2021/11/14 01:30:14;;;;;;;17.63;5.95;;;10.40;97.20;;;;;;5011062;28;20030;-46
2021/11/14 01:32:41;;;;;;;15.48;6.18;;;10.40;97.20;;;;;;5011083;28;20083;-46
2021/11/14 01:35:08;;;;;;;15.07;6.80;;;10.40;97.20;;;;;;5009882;28;20026;-46
2021/11/14 01:37:34;;;;;;;12.70;6.70;;;10.40;97.20;;;;;;4997224;28;20030;-46
2021/11/14 01:40:00;;;;;;;15.70;6.55;;;10.40;97.20;;;;;;4991278;28;20053;-46
2021/11/14 01:42:26;;;;;;;13.07;6.95;;;10.40;97.20;;;;;;4991197;28;20041;-46
2021/11/14 01:44:52;;;;;;;17.58;7.22;;;10.40;97.20;;;;;;5007827;28;20073;-46
2021/11/14 01:47:17;;;;;;;14.77;6.65;;;10.40;97.20;;;;;;5008528;28;20369;-46
2021/11/14 01:49:43;;;;;;;16.08;7.13;;;10.40;97.20;;;;;;5010577;28;20053;-46
2021/11/14 01:52:24;;;;;;;16.13;5.97;;;10.40;97.20;;;;;;5008420;28;20033;-46
2021/11/14 01:54:50;;;;;;;16.50;7.07;;;10.40;97.20;;;;;;5010712;28;20037;-46
2021/11/14 01:57:16;;;;;;;14.02;6.93;;;10.40;97.20;;;;;;5008584;28;20030;-46
2021/11/14 01:59:42;;;;;;;15.98;7.47;;;10.40;97.30;;;;;;5010468;28;20109;-47
2021/11/14 02:02:08;;;;;;;16.90;6.90;;;10.40;97.20;;;;;;5011652;28;20029;-47
2021/11/14 02:04:34;;;;;;;15.73;6.53;;;10.40;97.20;;;;;;5014572;28;20054;-46
2021/11/14 02:07:00;;;;;;;14.88;6.53;;;10.40;97.30;;;;;;5008177;28;20135;-46
2021/11/14 02:09:25;;;;;;;14.13;5.65;;;10.40;97.30;;;;;;5012828;28;20034;-46
2021/11/14 02:11:51;;;;;;;16.83;6.80;;;10.40;97.20;;;;;;5012925;28;20053;-46
2021/11/14 02:14:17;;;;;;;14.60;6.93;;;10.40;97.20;;;;;;5012726;28;20026;-48
2021/11/14 02:16:42;;;;;;;18.77;6.65;;;10.40;97.30;;;;;;5013751;28;20080;-46
2021/11/14 02:19:11;;;;;;;15.80;7.40;;;10.40;97.30;;;;;;5012234;28;20034;-46
2021/11/14 02:21:37;;;;;;;14.43;6.68;;;10.40;97.30;;;;;;5013883;28;20026;-48
2021/11/14 02:24:04;;;;;;;15.45;6.63;;;10.40;97.30;;;;;;5014262;28;20080;-47
2021/11/14 02:26:30;;;;;;;16.27;6.53;;;10.40;97.30;;;;;;5013458;28;20459;-46
2021/11/14 02:28:56;;;;;;;21.05;7.18;;;10.40;97.30;;;;;;5013827;28;20065;-46
2021/11/14 02:31:26;;;;;;;18.75;7.22;;;10.40;97.30;;;;;;5012017;28;20048;-47
2021/11/14 02:33:52;;;;;;;15.40;7.93;;;10.40;97.40;;;;;;5013983;28;20153;-46
2021/11/14 02:36:18;;;;;;;20.77;7.60;;;10.40;97.30;;;;;;5013648;28;20026;-46
2021/11/14 02:38:44;;;;;;;13.10;6.30;;;10.40;97.30;;;;;;5013111;28;20073;-47
2021/11/14 02:41:11;;;;;;;15.10;7.47;;;10.40;97.40;;;;;;5012076;28;20068;-46
2021/11/14 02:43:41;;;;;;;19.23;7.78;;;10.40;97.30;;;;;;4994729;28;20030;-46
2021/11/14 02:46:07;;;;;;;17.08;7.20;;;10.40;97.30;;;;;;4993177;28;20026;-46
2021/11/14 02:48:33;;;;;;;17.27;7.03;;;10.40;97.30;;;;;;5011262;28;20029;-47
2021/11/14 02:51:00;;;;;;;16.08;6.63;;;10.40;97.30;;;;;;5012065;28;20353;-47
2021/11/14 02:53:26;;;;;;;18.67;7.68;;;10.40;97.30;;;;;;5021692;28;20041;-46
2021/11/14 02:55:51;;;;;;;19.25;7.55;;;10.40;97.30;;;;;;5032712;28;20125;-46
2021/11/14 02:58:18;;;;;;;18.88;8.05;;;10.40;97.30;;;;;;5033423;28;20116;-46
2021/11/14 03:01:10;;;;;;;18.70;7.32;;;10.40;97.30;;;;;;5033305;28;20033;-46
2021/11/14 03:03:36;;;;;;;18.23;8.05;;;10.40;97.30;;;;;;5013345;28;20030;-47
2021/11/14 03:06:03;;;;;;;24.05;8.45;;;10.40;97.30;;;;;;5012697;28;20041;-46
2021/11/14 03:08:29;;;;;;;21.73;8.90;;;10.40;97.30;;;;;;5013216;28;20057;-46
2021/11/14 03:10:54;;;;;;;25.48;9.75;;;10.40;97.30;;;;;;5012692;28;20072;-46
2021/11/14 03:13:23;;;;;;;21.45;9.05;;;10.40;97.30;;;;;;5010567;28;20034;-47
2021/11/14 03:15:52;;;;;;;28.40;11.00;;;10.40;97.30;;;;;;5012444;28;20036;-46
2021/11/14 03:18:19;;;;;;;20.00;9.27;;;10.40;97.40;;;;;;5013547;28;20331;-46
2021/11/14 03:20:47;;;;;;;20.95;9.52;;;10.40;97.40;;;;;;5013281;28;20416;-47
2021/11/14 03:23:14;;;;;;;22.75;8.85;;;10.40;97.40;;;;;;5010686;28;20030;-46
2021/11/14 03:25:41;;;;;;;23.23;9.90;;;10.40;97.40;;;;;;5011865;28;20088;-47
2021/11/14 03:28:07;;;;;;;20.92;8.90;;;10.40;97.40;;;;;;5013348;28;20113;-46
2021/11/14 03:30:34;;;;;;;21.42;9.57;;;10.40;97.40;;;;;;5012113;28;20559;-47
2021/11/14 03:33:01;;;;;;;21.05;9.77;;;10.40;97.40;;;;;;5012482;28;20376;-47
2021/11/14 03:35:41;;;;;;;21.80;8.65;;;10.40;97.40;;;;;;5011313;28;20025;-46
2021/11/14 03:38:08;;;;;;;26.30;9.73;;;10.40;97.40;;;;;;5012227;28;20069;-47
2021/11/14 03:40:35;;;;;;;24.30;9.82;;;10.40;97.40;;;;;;5008742;28;20030;-46
2021/11/14 03:43:01;;;;;;;16.63;8.65;;;10.40;97.40;;;;;;4993542;28;20357;-47
2021/11/14 03:45:27;;;;;;;20.75;9.63;;;10.40;97.40;;;;;;4993192;28;20469;-47
2021/11/14 03:47:52;;;;;;;29.15;10.02;;;10.40;97.40;;;;;;4997788;28;20075;-47
2021/11/14 03:50:18;;;;;;;23.95;9.38;;;10.40;97.40;;;;;;5011213;28;20026;-47
2021/11/14 03:52:44;;;;;;;26.20;10.75;;;10.40;97.40;;;;;;4998351;28;20041;-47
2021/11/14 03:55:11;;;;;;;19.95;9.82;;;10.40;97.40;;;;;;5010300;28;20096;-47
2021/11/14 03:57:40;;;;;;;20.33;9.60;;;10.40;97.50;;;;;;5012980;28;20040;-46
2021/11/14 04:00:15;;;;;;;22.20;10.15;;;10.40;97.40;;;;;;5012270;28;20026;-46
2021/11/14 04:02:41;;;;;;;27.33;10.52;;;10.40;97.40;;;;;;5012616;28;20034;-47
2021/11/14 04:05:08;;;;;;;26.33;10.25;;;10.40;97.40;;;;;;5009579;28;20099;-47
2021/11/14 04:07:33;;;;;;;23.58;9.10;;;10.40;97.40;;;;;;5011683;28;20034;-47
2021/11/14 04:09:59;;;;;;;25.13;11.30;;;10.40;97.50;;;;;;4996471;28;20023;-47
2021/11/14 04:12:25;;;;;;;24.17;10.82;;;10.40;97.50;;;;;;4992320;28;20080;-46
2021/11/14 04:14:50;;;;;;;27.13;10.45;;;10.40;97.50;;;;;;4992378;28;20030;-47
2021/11/14 04:17:16;;;;;;;26.92;10.35;;;10.40;97.50;;;;;;4992943;28;20030;-46
2021/11/14 04:19:41;;;;;;;24.98;10.43;;;10.40;97.50;;;;;;4992407;28;20034;-47
2021/11/14 04:22:07;;;;;;;27.38;10.38;;;10.40;97.50;;;;;;4992491;28;20069;-46
2021/11/14 04:24:33;;;;;;;21.35;9.20;;;10.40;97.40;;;;;;5010752;28;20396;-46
2021/11/14 04:26:58;;;;;;;23.63;9.27;;;10.40;97.50;;;;;;5009934;28;20437;-46
2021/11/14 04:29:24;;;;;;;26.50;10.43;;;10.40;97.50;;;;;;5011580;28;20471;-47
2021/11/14 04:31:50;;;;;;;21.58;10.10;;;10.40;97.40;;;;;;5011561;28;20034;-47
2021/11/14 04:34:15;;;;;;;24.42;10.60;;;10.40;97.50;;;;;;5011640;28;20068;-47
2021/11/14 04:36:41;;;;;;;20.27;10.45;;;10.40;97.50;;;;;;5009359;28;20053;-47
2021/11/14 04:39:07;;;;;;;26.63;9.70;;;10.40;97.50;;;;;;5009782;28;20069;-46
2021/11/14 04:41:33;;;;;;;21.73;10.40;;;10.40;97.50;;;;;;5011572;28;20037;-46
2021/11/14 04:43:58;;;;;;;26.73;10.90;;;10.40;97.50;;;;;;5011361;28;20034;-46
2021/11/14 04:46:24;;;;;;;22.20;10.63;;;10.40;97.50;;;;;;5010775;28;20029;-47
2021/11/14 04:48:50;;;;;;;27.05;11.35;;;10.40;97.50;;;;;;4994547;28;20384;-48
2021/11/14 04:51:16;;;;;;;22.20;10.02;;;10.40;97.50;;;;;;4992317;28;20429;-47
2021/11/14 04:53:41;;;;;;;33.35;10.55;;;10.40;97.50;;;;;;5008674;28;20029;-47
2021/11/14 04:56:07;;;;;;;24.45;11.05;;;10.40;97.50;;;;;;5011172;28;20475;-46
2021/11/14 04:58:33;;;;;;;21.52;9.90;;;10.40;97.50;;;;;;5009816;28;20030;-47
2021/11/14 05:00:59;;;;;;;29.50;10.48;;;10.40;97.50;;;;;;4997831;28;20045;-46
2021/11/14 05:03:25;;;;;;;26.67;11.23;;;10.40;97.50;;;;;;4991940;28;20442;-47
2021/11/14 05:05:51;;;;;;;25.63;10.70;;;10.40;97.60;;;;;;5001097;28;20116;-46
2021/11/14 05:08:17;;;;;;;27.85;10.52;;;10.40;97.60;;;;;;5008871;28;20494;-47
2021/11/14 05:10:44;;;;;;;31.40;11.52;;;10.50;97.60;;;;;;5001100;28;20479;-47
2021/11/14 05:13:10;;;;;;;29.90;11.23;;;10.40;97.50;;;;;;4991443;28;20037;-46
2021/11/14 05:15:36;;;;;;;26.15;12.07;;;10.40;97.60;;;;;;5009950;28;20113;-48
2021/11/14 05:18:02;;;;;;;24.45;11.15;;;10.40;97.60;;;;;;5010937;28;20479;-47
2021/11/14 05:20:28;;;;;;;26.85;10.30;;;10.40;97.60;;;;;;4996646;28;20038;-47
2021/11/14 05:22:53;;;;;;;23.13;10.02;;;10.40;97.60;;;;;;4992291;28;20122;-46
2021/11/14 05:25:20;;;;;;;33.08;11.20;;;10.40;97.60;;;;;;5010531;28;20033;-47
2021/11/14 05:27:46;;;;;;;30.83;11.48;;;10.40;97.60;;;;;;5011235;28;20037;-47
2021/11/14 05:30:12;;;;;;;26.30;10.70;;;10.40;97.60;;;;;;5009638;28;20468;-47
2021/11/14 05:32:39;;;;;;;29.63;11.55;;;10.40;97.70;;;;;;5010642;28;20022;-47
2021/11/14 05:35:06;;;;;;;32.28;10.77;;;10.40;97.70;;;;;;5008791;28;20026;-46
2021/11/14 05:37:31;;;;;;;27.48;10.85;;;10.40;97.70;;;;;;5012915;28;20084;-47
2021/11/14 05:39:57;;;;;;;31.73;12.25;;;10.40;97.70;;;;;;5013869;28;20042;-47
2021/11/14 05:42:23;;;;;;;26.55;11.65;;;10.40;97.70;;;;;;5015185;28;20033;-47
2021/11/14 05:44:48;;;;;;;28.42;11.20;;;10.50;97.70;;;;;;5013370;28;20425;-47
2021/11/14 05:47:14;;;;;;;36.53;12.48;;;10.40;97.70;;;;;;5013794;28;20037;-47
2021/11/14 05:49:40;;;;;;;26.60;11.68;;;10.40;97.70;;;;;;5014888;28;20022;-46
2021/11/14 05:52:06;;;;;;;30.10;12.10;;;10.40;97.70;;;;;;5014812;28;20026;-47
2021/11/14 05:54:32;;;;;;;32.65;12.73;;;10.40;97.70;;;;;;5013133;28;20030;-47
2021/11/14 05:56:58;;;;;;;32.00;12.45;;;10.40;97.70;;;;;;5012797;28;20030;-47
2021/11/14 06:02:00;;;;;;;29.83;11.73;;;10.50;97.70;;;;;;5012844;28;20091;-47
2021/11/14 06:05:13;;;;;;;24.90;10.88;;;10.40;97.70;;;;;;5014572;28;20370;-47
2021/11/14 06:07:14;;;;;;;22.75;10.45;;;10.40;97.70;;;;;;5009116;28;20456;-47
2021/11/14 06:09:40;;;;;;;25.42;11.73;;;10.50;97.70;;;;;;5013606;28;20114;-47
2021/11/14 06:12:06;;;;;;;26.58;10.82;;;10.50;97.70;;;;;;5014891;28;20030;-47
2021/11/14 06:14:33;;;;;;;24.10;10.75;;;10.40;97.70;;;;;;5014523;28;20029;-46
2021/11/14 06:17:00;;;;;;;25.50;10.73;;;10.40;97.70;;;;;;5011932;28;20034;-47
2021/11/14 06:19:26;;;;;;;31.05;10.38;;;10.50;97.70;;;;;;5013865;28;20512;-47
2021/11/14 06:21:52;;;;;;;28.20;11.55;;;10.40;97.70;;;;;;5013955;28;20041;-47
2021/11/14 06:24:18;;;;;;;35.00;12.27;;;10.50;97.70;;;;;;5012009;28;20036;-46
2021/11/14 06:26:44;;;;;;;30.45;11.93;;;10.40;97.70;;;;;;5012011;28;20026;-47
2021/11/14 06:29:11;;;;;;;29.55;11.50;;;10.50;97.70;;;;;;4994468;28;20026;-46
2021/11/14 06:31:37;;;;;;;35.65;12.38;;;10.50;97.70;;;;;;4993767;28;20168;-46
2021/11/14 06:34:03;;;;;;;26.90;10.27;;;10.40;97.70;;;;;;4992969;28;20403;-47
2021/11/14 06:36:28;;;;;;;23.27;11.02;;;10.50;97.70;;;;;;4992960;28;20142;-47
2021/11/14 06:38:54;;;;;;;27.00;11.50;;;10.40;97.70;;;;;;4997973;28;20103;-47
2021/11/14 06:41:20;;;;;;;25.02;11.23;;;10.50;97.70;;;;;;5013178;28;20015;-47
2021/11/14 06:43:45;;;;;;;24.50;11.35;;;10.40;97.70;;;;;;5013081;28;20182;-48
2021/11/14 06:46:11;;;;;;;26.30;10.77;;;10.50;97.80;;;;;;5013330;28;20018;-46
2021/11/14 06:48:37;;;;;;;29.92;11.57;;;10.40;97.70;;;;;;5002925;28;20030;-47
2021/11/14 06:51:03;;;;;;;26.20;11.13;;;10.50;97.80;;;;;;4993978;28;20018;-46
2021/11/14 06:53:29;;;;;;;24.80;10.05;;;10.50;97.80;;;;;;4993280;28;20058;-46
2021/11/14 06:55:55;;;;;;;30.98;11.07;;;10.40;97.80;;;;;;4999587;28;20116;-47
2021/11/14 06:58:21;;;;;;;29.15;12.15;;;10.40;97.70;;;;;;4995410;28;20447;-47
2021/11/14 07:00:47;;;;;;;34.03;12.45;;;10.50;97.80;;;;;;4993995;28;20023;-47
2021/11/14 07:03:14;;;;;;;27.63;11.07;;;10.50;97.80;;;;;;4993316;28;20034;-47
2021/11/14 07:05:40;;;;;;;31.42;12.82;;;10.50;97.80;;;;;;4995809;28;20457;-46
2021/11/14 07:08:06;;;;;;;25.58;10.52;;;10.50;97.80;;;;;;5011426;28;20041;-47
2021/11/14 07:10:31;;;;;;;31.17;12.50;;;10.50;97.80;;;;;;5007845;28;20330;-47
2021/11/14 07:12:58;;;;;;;28.33;11.18;;;10.50;97.80;;;;;;5013445;28;20105;-47
2021/11/14 07:15:23;;;;;;;28.65;11.27;;;10.50;97.80;;;;;;5008459;28;20023;-47
2021/11/14 07:17:49;;;;;;;30.48;11.05;;;10.50;97.90;;;;;;4993182;28;20061;-47
2021/11/14 07:20:17;;;;;;;26.40;9.70;;;10.50;97.90;;;;;;4994258;28;20398;-47
2021/11/14 07:22:44;;;;;;;31.05;12.00;;;10.50;97.80;;;;;;4996157;28;20045;-47
2021/11/14 07:25:17;;;;;;;27.10;10.52;;;10.50;97.80;;;;;;5010976;28;20160;-47
2021/11/14 07:27:43;;;;;;;30.52;11.60;;;10.50;97.90;;;;;;5013415;28;20409;-47
2021/11/14 07:30:11;;;;;;;30.48;11.38;;;10.50;97.90;;;;;;5011261;28;20081;-47
2021/11/14 07:32:40;;;;;;;21.88;10.38;;;10.50;97.90;;;;;;5012251;28;20037;-46
2021/11/14 07:35:07;;;;;;;25.98;11.32;;;10.50;97.90;;;;;;5012115;28;20034;-46
2021/11/14 07:37:32;;;;;;;28.17;11.60;;;10.50;97.90;;;;;;5013281;28;20432;-47
2021/11/14 07:39:58;;;;;;;18.73;9.18;;;10.50;97.90;;;;;;5010595;28;20511;-46
2021/11/14 07:42:24;;;;;;;26.67;11.65;;;10.50;97.90;;;;;;5012265;28;20080;-46
2021/11/14 07:44:49;;;;;;;28.08;12.23;;;10.50;97.90;;;;;;5012778;28;20058;-46
2021/11/14 07:47:15;;;;;;;24.20;11.40;;;10.50;97.90;;;;;;5008580;28;20026;-46
2021/11/14 07:49:40;;;;;;;30.90;12.48;;;10.50;97.90;;;;;;4993018;28;20508;-46
2021/11/14 07:52:07;;;;;;;32.88;12.20;;;10.50;97.90;;;;;;4996944;28;20117;-46
2021/11/14 07:54:33;;;;;;;26.90;11.13;;;10.50;97.90;;;;;;4996353;28;20029;-46
2021/11/14 07:56:58;;;;;;;29.38;10.70;;;10.50;97.90;;;;;;5011323;28;20049;-46
2021/11/14 07:59:24;;;;;;;23.65;11.18;;;10.50;97.90;;;;;;5016549;28;20113;-46
2021/11/14 08:01:49;;;;;;;24.20;9.77;;;10.50;97.90;;;;;;5010470;28;20365;-46
2021/11/14 08:04:15;;;;;;;25.60;10.32;;;10.50;97.90;;;;;;5008662;28;20030;-46
2021/11/14 08:06:41;;;;;;;24.98;11.38;;;10.50;97.90;;;;;;5011112;28;20057;-46
2021/11/14 08:09:07;;;;;;;23.48;10.50;;;10.50;98.00;;;;;;5007280;28;20473;-46
2021/11/14 08:11:33;;;;;;;22.33;10.30;;;10.50;98.00;;;;;;5010308;28;20038;-46
2021/11/14 08:13:58;;;;;;;24.27;10.25;;;10.50;98.00;;;;;;5008679;28;20034;-46
2021/11/14 08:16:24;;;;;;;24.88;10.65;;;10.50;97.90;;;;;;5016237;28;20025;-47
2021/11/14 08:18:50;;;;;;;23.80;9.73;;;10.50;98.00;;;;;;5020595;28;20076;-46
2021/11/14 08:21:16;;;;;;;25.17;10.02;;;10.50;98.00;;;;;;5022339;28;20090;-47
2021/11/14 08:23:41;;;;;;;21.77;10.02;;;10.50;98.00;;;;;;5017207;28;20029;-46
2021/11/14 08:26:07;;;;;;;24.17;9.38;;;10.50;98.00;;;;;;5017066;28;20075;-47
2021/11/14 08:28:33;;;;;;;19.13;8.77;;;10.50;98.00;;;;;;5026303;28;20030;-47
2021/11/14 08:30:58;;;;;;;18.42;8.60;;;10.50;98.00;;;;;;5031319;28;20052;-47
2021/11/14 08:33:25;;;;;;;17.35;8.55;;;10.50;98.00;;;;;;5025240;28;20109;-47
2021/11/14 08:35:51;;;;;;;21.52;9.55;;;10.50;98.10;;;;;;4991975;28;20173;-47
2021/11/14 08:38:17;;;;;;;25.85;10.23;;;10.50;98.10;;;;;;4992275;28;20532;-46
2021/11/14 08:40:44;;;;;;;15.90;7.85;;;10.50;98.10;;;;;;5002530;28;20117;-47
2021/11/14 08:43:10;;;;;;;22.17;9.93;;;10.50;98.10;;;;;;5003718;28;20034;-47
2021/11/14 08:45:36;;;;;;;19.77;9.40;;;10.50;98.20;;;;;;4995595;28;20034;-47
2021/11/14 08:48:03;;;;;;;19.35;9.07;;;10.50;98.10;;;;;;4991973;28;20037;-46
2021/11/14 08:50:31;;;;;;;23.23;10.20;;;10.50;98.20;;;;;;4989526;28;20053;-47
2021/11/14 08:52:57;;;;;;;24.52;9.18;;;10.50;98.20;;;;;;5006268;28;20269;-47
2021/11/14 08:55:26;;;;;;;20.33;8.15;;;10.50;98.20;;;;;;5001618;28;20027;-46
2021/11/14 08:57:53;;;;;;;21.13;8.65;;;10.50;98.20;;;;;;4992614;28;20556;-46
2021/11/14 09:00:23;;;;;;;23.50;9.50;;;10.50;98.20;;;;;;5010374;28;20085;-46
2021/11/14 09:02:50;;;;;;;18.88;9.02;;;10.50;98.20;;;;;;5011357;28;20065;-46
2021/11/14 09:05:17;;;;;;;23.95;9.82;;;10.50;98.20;;;;;;5008086;28;20389;-47
2021/11/14 09:07:44;;;;;;;20.95;8.85;;;10.50;98.20;;;;;;4991814;28;20030;-46
2021/11/14 09:10:11;;;;;;;21.98;9.95;;;10.50;98.20;;;;;;4995052;28;20038;-47
2021/11/14 09:12:37;;;;;;;23.30;9.80;;;10.50;98.20;;;;;;5004543;28;20014;-47
2021/11/14 09:15:03;;;;;;;28.27;10.95;;;10.50;98.20;;;;;;5005010;28;20018;-46
2021/11/14 09:17:29;;;;;;;32.22;13.43;;;10.60;98.30;;;;;;4995996;28;20042;-46
2021/11/14 09:19:55;;;;;;;34.45;11.10;;;10.50;98.20;;;;;;4990428;28;20022;-47
2021/11/14 09:22:21;;;;;;;31.42;11.55;;;10.50;98.20;;;;;;4991443;28;20513;-47
2021/11/14 09:24:47;;;;;;;29.33;11.32;;;10.60;98.30;;;;;;4991362;28;20420;-46
2021/11/14 09:27:13;;;;;;;25.98;9.52;;;10.60;98.30;;;;;;5007717;28;20049;-47
2021/11/14 09:29:38;;;;;;;21.88;10.00;;;10.60;98.20;;;;;;5011166;28;20457;-47
2021/11/14 09:32:06;;;;;;;27.75;11.00;;;10.60;98.20;;;;;;5001951;28;20033;-46
2021/11/14 09:34:32;;;;;;;29.45;10.52;;;10.60;98.30;;;;;;4989756;28;20509;-47
2021/11/14 09:36:57;;;;;;;28.65;10.20;;;10.60;98.10;;;;;;4990608;28;20118;-47
2021/11/14 09:39:23;;;;;;;23.88;11.13;;;10.50;98.00;;;;;;4991899;28;20034;-46
2021/11/14 09:41:53;;;;;;;25.17;9.82;;;10.50;97.90;;;;;;5005354;28;20460;-46
2021/11/14 09:44:20;;;;;;;28.08;9.98;;;10.50;97.80;;;;;;5010942;28;20076;-46
2021/11/14 09:46:52;;;;;;;24.00;8.77;;;10.50;97.90;;;;;;5008648;28;20072;-47
2021/11/14 09:49:19;;;;;;;23.80;9.45;;;10.50;97.90;;;;;;5010103;28;20096;-47
2021/11/14 09:51:48;;;;;;;24.13;9.05;;;10.50;97.80;;;;;;5010860;28;20030;-46
2021/11/14 09:54:14;;;;;;;22.58;8.63;;;10.50;97.90;;;;;;5011025;28;20428;-46
2021/11/14 09:56:40;;;;;;;32.15;11.00;;;10.50;97.70;;;;;;5008658;28;20034;-46
2021/11/14 09:59:06;;;;;;;24.98;9.35;;;10.50;97.80;;;;;;5008509;28;20116;-46
2021/11/14 10:01:32;;;;;;;25.85;8.65;;;10.40;97.70;;;;;;5009137;28;20025;-46
2021/11/14 10:03:58;;;;;;;26.25;9.88;;;10.50;97.70;;;;;;5010031;28;20476;-47
2021/11/14 10:06:25;;;;;;;24.10;9.57;;;10.40;97.60;;;;;;5009811;28;20124;-47
2021/11/14 10:08:51;;;;;;;21.58;9.18;;;10.50;97.80;;;;;;4999440;28;20062;-47
2021/11/14 10:11:17;;;;;;;23.73;10.13;;;10.40;97.70;;;;;;4998872;28;20057;-46
2021/11/14 10:13:49;;;;;;;25.63;8.82;;;10.40;97.70;;;;;;5010512;28;20037;-46
2021/11/14 10:16:19;;;;;;;25.55;10.38;;;10.40;97.70;;;;;;5009877;28;20026;-46
2021/11/14 10:18:58;;;;;;;25.67;9.45;;;10.40;97.70;;;;;;5008627;28;20421;-46
2021/11/14 10:21:26;;;;;;;27.85;10.55;;;10.40;97.70;;;;;;5010870;28;20042;-46
2021/11/14 10:23:52;;;;;;;27.45;10.80;;;10.40;97.70;;;;;;5012114;28;20029;-46
2021/11/14 10:26:18;;;;;;;26.80;10.88;;;10.40;97.80;;;;;;5012485;28;20022;-46
2021/11/14 10:28:46;;;;;;;24.25;10.77;;;10.40;97.80;;;;;;5014125;28;20420;-46
2021/11/14 10:31:16;;;;;;;24.95;10.27;;;10.40;97.70;;;;;;5013233;28;20041;-46
2021/11/14 10:33:42;;;;;;;24.73;10.40;;;10.40;97.80;;;;;;5012674;28;20033;-47
2021/11/14 10:36:08;;;;;;;21.25;9.50;;;10.40;97.70;;;;;;5006506;28;20035;-46
2021/11/14 10:38:35;;;;;;;27.23;9.57;;;10.40;97.70;;;;;;4994490;28;20034;-46
2021/11/14 10:41:08;;;;;;;23.95;10.13;;;10.40;97.70;;;;;;4998982;28;20022;-46
2021/11/14 10:43:38;;;;;;;26.50;10.30;;;10.40;97.80;;;;;;5013466;28;20516;-46
2021/11/14 10:46:06;;;;;;;25.80;10.95;;;10.40;97.90;;;;;;5013100;28;20053;-46
2021/11/14 10:48:33;;;;;;;27.88;11.25;;;10.40;97.70;;;;;;5013089;28;20038;-46
2021/11/14 10:51:03;;;;;;;30.75;11.23;;;10.40;97.70;;;;;;5011938;28;20033;-47
2021/11/14 10:53:33;;;;;;;27.42;12.30;;;10.40;97.80;;;;;;5013734;28;20038;-46
2021/11/14 10:56:07;;;;;;;28.08;10.68;;;10.40;97.90;;;;;;5011663;28;20057;-46
2021/11/14 10:58:33;;;;;;;24.70;10.27;;;10.40;97.80;;;;;;5013390;28;20461;-46
2021/11/14 11:01:08;;;;;;;22.38;8.55;;;10.40;98.10;;;;;;5011520;28;20484;-46
2021/11/14 11:03:39;;;;;;;34.22;12.20;;;10.40;97.80;;;;;;5012895;28;20471;-46
2021/11/14 11:06:07;;;;;;;19.13;9.60;;;10.40;97.90;;;;;;5012735;28;20037;-46
2021/11/14 11:08:33;;;;;;;31.77;10.95;;;10.40;97.90;;;;;;5013391;28;20022;-46
2021/11/14 11:11:03;;;;;;;22.05;9.25;;;10.30;97.90;;;;;;4999977;28;20042;-46
2021/11/14 11:13:30;;;;;;;23.30;10.45;;;10.40;97.90;;;;;;5012856;28;20062;-46
2021/11/14 11:15:59;;;;;;;26.55;11.52;;;10.30;97.90;;;;;;5011868;28;20125;-46
2021/11/14 11:18:25;;;;;;;27.58;11.93;;;10.40;97.90;;;;;;5012665;28;20041;-46
2021/11/14 11:20:56;;;;;;;26.85;12.13;;;10.30;97.80;;;;;;5011520;28;20029;-46
2021/11/14 11:23:25;;;;;;;27.33;11.80;;;10.30;97.80;;;;;;5013364;28;20026;-47
2021/11/14 11:25:57;;;;;;;25.48;11.48;;;10.30;97.90;;;;;;5010868;28;20339;-46
2021/11/14 11:28:33;;;;;;;24.77;11.32;;;10.30;97.90;;;;;;5012874;28;20471;-46
2021/11/14 11:31:03;;;;;;;29.15;11.15;;;10.30;97.90;;;;;;5011714;28;20038;-46
2021/11/14 11:33:32;;;;;;;29.77;11.70;;;10.40;97.90;;;;;;5012423;28;20511;-46
2021/11/14 11:35:58;;;;;;;29.20;12.68;;;10.30;98.00;;;;;;5002083;28;20065;-46
2021/11/14 11:38:26;;;;;;;36.67;14.82;;;10.30;97.90;;;;;;4992829;28;20038;-46
2021/11/14 11:40:54;;;;;;;32.20;12.40;;;10.30;98.00;;;;;;4992719;28;20027;-46
2021/11/14 11:43:20;;;;;;;37.33;15.30;;;10.30;97.90;;;;;;4994351;28;20089;-46
2021/11/14 11:45:47;;;;;;;33.88;14.85;;;10.30;97.90;;;;;;4992653;28;20386;-46
2021/11/14 11:48:22;;;;;;;31.83;13.30;;;10.30;97.90;;;;;;4991934;28;20022;-46
2021/11/14 11:50:49;;;;;;;34.65;14.38;;;10.30;98.00;;;;;;4993201;28;20026;-46
2021/11/14 11:53:27;;;;;;;33.35;13.30;;;10.30;98.00;;;;;;4995117;28;20038;-46
2021/11/14 11:56:06;;;;;;;36.22;16.35;;;10.30;98.30;;;;;;4991973;28;20405;-47
2021/11/14 11:58:42;;;;;;;41.43;16.63;;;10.30;98.00;;;;;;5011979;28;20065;-46
2021/11/14 12:01:28;;;;;;;37.20;16.45;;;10.30;98.10;;;;;;5012904;28;20460;-46
2021/11/14 12:04:08;;;;;;;37.13;17.55;;;10.30;98.10;;;;;;5010131;28;20529;-46
2021/11/14 12:06:44;;;;;;;31.88;14.05;;;10.30;98.00;;;;;;5009774;28;20040;-46
2021/11/14 12:09:11;;;;;;;31.38;12.23;;;10.30;98.10;;;;;;4992563;28;20462;-46
2021/11/14 12:11:40;;;;;;;30.50;13.20;;;10.30;98.30;;;;;;5006301;28;20025;-46
2021/11/14 12:14:21;;;;;;;32.65;13.30;;;10.30;97.90;;;;;;5010130;28;20036;-46
2021/11/14 12:17:01;;;;;;;31.85;13.65;;;10.30;97.90;;;;;;5012043;28;20033;-46
2021/11/14 12:19:31;;;;;;;25.50;12.00;;;10.30;98.00;;;;;;5011541;28;20042;-46
2021/11/14 12:22:02;;;;;;;30.33;12.68;;;10.30;98.10;;;;;;5012515;28;20037;-46
2021/11/14 12:24:31;;;;;;;23.17;9.68;;;10.30;97.90;;;;;;5006613;28;20036;-46
2021/11/14 12:26:57;;;;;;;24.75;11.55;;;10.30;98.00;;;;;;4996509;28;20026;-46
2021/11/14 12:29:32;;;;;;;24.10;11.75;;;10.30;98.10;;;;;;5011465;28;20349;-46
2021/11/14 12:32:01;;;;;;;27.85;11.52;;;10.30;98.00;;;;;;5011319;28;20445;-46
2021/11/14 12:34:30;;;;;;;29.13;12.43;;;10.30;98.00;;;;;;5011621;28;20030;-46